createdAt,value
2017-07-28T00:01:12.128Z,12.93
2017-07-28T00:03:39.578Z,12.13
2017-07-28T00:06:07.010Z,12.30
2017-07-28T00:08:34.452Z,11.35
2017-07-28T00:11:01.874Z,11.38
2017-07-28T00:13:29.330Z,8.25
2017-07-28T00:15:56.781Z,10.60
2017-07-28T00:18:24.206Z,8.00
2017-07-28T00:20:51.651Z,8.68
2017-07-28T00:23:19.073Z,10.77
2017-07-28T00:25:46.524Z,12.73
2017-07-28T00:28:13.952Z,8.90
2017-07-28T00:30:41.378Z,9.73
2017-07-28T00:33:08.816Z,10.57
2017-07-28T00:35:36.257Z,12.02
2017-07-28T00:38:03.694Z,11.00
2017-07-28T00:40:31.130Z,10.25
2017-07-28T00:42:58.554Z,8.85
2017-07-28T00:45:25.993Z,9.05
2017-07-28T00:47:53.422Z,8.10
2017-07-28T00:50:20.866Z,9.13
2017-07-28T00:52:48.318Z,9.70
2017-07-28T00:55:15.741Z,9.30
2017-07-28T00:57:43.192Z,7.18
2017-07-28T01:00:10.624Z,7.33
2017-07-28T01:02:38.054Z,10.10
2017-07-28T01:05:05.490Z,8.70
2017-07-28T01:07:32.931Z,9.27
2017-07-28T01:10:00.355Z,8.02
2017-07-28T01:12:27.795Z,11.27
2017-07-28T01:14:55.222Z,7.87
2017-07-28T01:17:22.659Z,6.78
2017-07-28T01:19:50.119Z,8.18
2017-07-28T01:22:17.551Z,8.37
2017-07-28T01:24:44.978Z,8.35
2017-07-28T01:27:12.415Z,10.52
2017-07-28T01:29:39.842Z,8.30
2017-07-28T01:32:07.263Z,7.90
2017-07-28T01:34:34.715Z,10.40
2017-07-28T01:37:02.143Z,10.90
2017-07-28T01:39:29.565Z,11.43
2017-07-28T01:41:57.027Z,8.13
2017-07-28T01:44:24.449Z,8.30
2017-07-28T01:46:51.887Z,8.65
2017-07-28T01:49:19.375Z,9.15
2017-07-28T01:51:46.794Z,8.80
2017-07-28T01:54:14.221Z,8.35
2017-07-28T01:56:41.675Z,7.93
2017-07-28T01:59:09.090Z,8.75
2017-07-28T02:01:36.535Z,9.48
2017-07-28T02:04:03.975Z,10.15
2017-07-28T02:06:31.414Z,10.90
2017-07-28T02:08:58.856Z,11.15
2017-07-28T02:11:26.307Z,11.10
2017-07-28T02:13:53.732Z,10.52
2017-07-28T02:16:21.189Z,9.88
2017-07-28T02:18:48.630Z,9.90
2017-07-28T02:21:16.080Z,12.13
2017-07-28T02:23:43.531Z,13.65
2017-07-28T02:26:10.963Z,13.80
2017-07-28T02:28:38.401Z,14.15
2017-07-28T02:31:05.844Z,13.45
2017-07-28T02:33:33.275Z,13.35
2017-07-28T02:36:00.711Z,14.07
2017-07-28T02:38:28.165Z,14.57
2017-07-28T02:40:55.602Z,17.67
2017-07-28T02:43:23.541Z,16.42
2017-07-28T02:45:50.984Z,13.50
2017-07-28T02:48:18.435Z,15.40
2017-07-28T02:50:45.863Z,18.73
2017-07-28T02:53:13.337Z,16.45
2017-07-28T02:55:40.767Z,20.45
2017-07-28T02:58:08.203Z,20.17
2017-07-28T03:00:35.644Z,20.25
2017-07-28T03:03:03.112Z,21.77
2017-07-28T03:05:30.544Z,22.50
2017-07-28T03:07:57.988Z,20.00
2017-07-28T03:10:25.434Z,20.40
2017-07-28T03:12:52.914Z,21.20
2017-07-28T03:15:20.342Z,20.65
2017-07-28T03:17:47.779Z,19.25
2017-07-28T03:20:15.223Z,20.73
2017-07-28T03:22:42.663Z,22.92
2017-07-28T03:25:10.130Z,19.77
2017-07-28T03:27:37.576Z,22.20
2017-07-28T03:30:05.035Z,23.92
2017-07-28T03:32:32.469Z,23.10
2017-07-28T03:34:59.919Z,22.77
2017-07-28T03:37:27.367Z,19.25
2017-07-28T03:39:54.803Z,22.83
2017-07-28T03:42:23.249Z,23.75
2017-07-28T03:44:50.695Z,27.62
2017-07-28T03:47:18.128Z,26.23
2017-07-28T03:49:45.587Z,26.00
2017-07-28T03:52:13.064Z,28.27
2017-07-28T03:54:40.506Z,28.85
2017-07-28T03:57:07.963Z,32.83
2017-07-28T03:59:35.409Z,27.93
2017-07-28T04:02:02.848Z,26.77
2017-07-28T04:04:30.292Z,31.45
2017-07-28T04:06:57.732Z,22.93
2017-07-28T04:09:25.171Z,21.83
2017-07-28T04:11:52.621Z,21.55
2017-07-28T04:14:20.074Z,20.47
2017-07-28T04:16:47.532Z,18.25
2017-07-28T04:19:14.988Z,17.23
2017-07-28T04:21:42.406Z,16.07
2017-07-28T04:24:09.856Z,17.50
2017-07-28T04:26:37.299Z,15.00
2017-07-28T04:29:04.733Z,12.60
2017-07-28T04:31:32.182Z,11.25
2017-07-28T04:33:59.639Z,13.68
2017-07-28T04:36:27.074Z,10.73
2017-07-28T04:38:54.524Z,11.18
2017-07-28T04:41:21.970Z,11.07
2017-07-28T04:43:49.408Z,11.15
2017-07-28T04:46:16.845Z,9.82
2017-07-28T04:48:44.295Z,13.82
2017-07-28T04:51:11.727Z,9.00
2017-07-28T04:53:39.214Z,9.43
2017-07-28T04:56:06.656Z,8.83
2017-07-28T04:58:34.084Z,12.07
2017-07-28T05:01:01.541Z,9.82
2017-07-28T05:03:29.042Z,11.25
2017-07-28T05:05:56.483Z,10.63
2017-07-28T05:08:23.943Z,10.00
2017-07-28T05:10:51.406Z,12.55
2017-07-28T05:13:18.858Z,10.60
2017-07-28T05:15:46.302Z,9.65
2017-07-28T05:18:13.747Z,12.85
2017-07-28T05:20:41.191Z,13.07
2017-07-28T05:23:08.780Z,9.60
2017-07-28T05:25:36.225Z,9.25
2017-07-28T05:28:03.665Z,8.27
2017-07-28T05:30:31.144Z,11.53
2017-07-28T05:32:58.611Z,8.45
2017-07-28T05:35:26.058Z,10.48
2017-07-28T05:37:53.501Z,10.70
2017-07-28T05:40:20.929Z,11.57
2017-07-28T05:42:48.376Z,11.60
2017-07-28T05:45:15.832Z,10.02
2017-07-28T05:47:43.295Z,12.63
2017-07-28T05:50:10.740Z,12.02
2017-07-28T05:52:38.168Z,9.05
2017-07-28T05:55:05.622Z,11.73
2017-07-28T05:57:33.140Z,13.10
2017-07-28T06:00:00.577Z,11.05
2017-07-28T06:02:28.023Z,11.73
2017-07-28T06:04:55.472Z,12.77
2017-07-28T06:07:22.915Z,9.20
2017-07-28T06:09:50.405Z,17.92
2017-07-28T06:12:17.825Z,11.75
2017-07-28T06:14:45.280Z,12.48
2017-07-28T06:17:12.760Z,12.73
2017-07-28T06:19:40.205Z,12.00
2017-07-28T06:22:07.718Z,9.68
2017-07-28T06:24:35.186Z,10.93
2017-07-28T06:27:02.669Z,12.98
2017-07-28T06:29:30.112Z,10.45
2017-07-28T06:31:57.530Z,9.27
2017-07-28T06:34:24.985Z,8.30
2017-07-28T06:36:52.410Z,9.43
2017-07-28T06:39:19.840Z,16.17
2017-07-28T06:41:47.298Z,10.32
2017-07-28T06:44:14.750Z,10.70
2017-07-28T06:46:42.216Z,9.07
2017-07-28T06:49:09.634Z,11.27
2017-07-28T06:51:37.062Z,10.57
2017-07-28T06:54:04.515Z,8.77
2017-07-28T06:56:31.964Z,13.93
2017-07-28T06:58:59.403Z,18.12
2017-07-28T07:01:26.872Z,10.48
2017-07-28T07:03:54.314Z,11.50
2017-07-28T07:06:21.803Z,11.88
2017-07-28T07:08:49.249Z,9.77
2017-07-28T07:11:16.701Z,11.95
2017-07-28T07:13:44.187Z,9.10
2017-07-28T07:16:11.632Z,11.27
2017-07-28T07:18:39.082Z,9.38
2017-07-28T07:21:06.508Z,11.55
2017-07-28T07:23:33.948Z,11.05
2017-07-28T07:26:01.391Z,10.38
2017-07-28T07:28:28.862Z,10.07
2017-07-28T07:30:56.332Z,11.18
2017-07-28T07:33:24.460Z,10.82
2017-07-28T07:35:51.902Z,11.45
2017-07-28T07:38:19.318Z,9.03
2017-07-28T07:40:46.776Z,9.07
2017-07-28T07:43:14.276Z,10.25
2017-07-28T07:45:41.715Z,10.43
2017-07-28T07:48:09.181Z,11.88
2017-07-28T07:50:36.625Z,12.75
2017-07-28T07:53:04.080Z,12.20
2017-07-28T07:55:31.546Z,17.80
2017-07-28T07:57:58.973Z,12.50
2017-07-28T08:00:26.419Z,12.40
2017-07-28T08:02:53.875Z,14.52
2017-07-28T08:05:21.313Z,12.35
2017-07-28T08:07:48.767Z,11.40
2017-07-28T08:10:16.223Z,16.15
2017-07-28T08:12:43.652Z,8.57
2017-07-28T08:15:11.101Z,10.02
2017-07-28T08:17:38.543Z,14.48
2017-07-28T08:20:06.002Z,14.43
2017-07-28T08:22:33.438Z,14.43
2017-07-28T08:25:00.878Z,13.60
2017-07-28T08:27:28.321Z,13.07
2017-07-28T08:29:55.744Z,10.82
2017-07-28T08:32:23.187Z,13.53
2017-07-28T08:34:50.659Z,11.77
2017-07-28T08:37:18.097Z,13.38
2017-07-28T08:39:45.530Z,12.35
2017-07-28T08:42:12.988Z,10.45
2017-07-28T08:44:40.489Z,11.18
2017-07-28T08:47:07.962Z,11.05
2017-07-28T08:49:35.404Z,10.82
2017-07-28T08:52:02.841Z,12.02
2017-07-28T08:54:30.298Z,9.00
2017-07-28T08:56:57.741Z,11.63
2017-07-28T08:59:25.167Z,11.80
2017-07-28T09:01:52.625Z,11.23
2017-07-28T09:04:20.067Z,12.80
2017-07-28T09:06:47.506Z,10.90
2017-07-28T09:09:15.017Z,9.85
2017-07-28T09:11:42.460Z,11.93
2017-07-28T09:14:09.915Z,10.07
2017-07-28T09:16:37.342Z,14.85
2017-07-28T09:19:04.793Z,11.23
2017-07-28T09:21:32.235Z,10.55
2017-07-28T09:23:59.679Z,12.75
2017-07-28T09:26:27.134Z,11.60
2017-07-28T09:28:54.587Z,12.70
2017-07-28T09:31:22.076Z,10.27
2017-07-28T09:33:49.502Z,6.95
2017-07-28T09:36:16.972Z,10.18
2017-07-28T09:38:44.415Z,7.20
2017-07-28T09:41:11.846Z,11.53
2017-07-28T09:43:39.304Z,8.52
2017-07-28T09:46:06.754Z,9.70
2017-07-28T09:48:34.877Z,10.30
2017-07-28T09:51:02.305Z,6.95
2017-07-28T09:53:29.741Z,8.05
2017-07-28T09:55:57.176Z,8.02
2017-07-28T09:58:24.632Z,10.35
2017-07-28T10:00:52.099Z,9.25
2017-07-28T10:03:19.524Z,8.23
2017-07-28T10:05:46.968Z,10.55
2017-07-28T10:08:14.403Z,8.05
2017-07-28T10:10:41.846Z,8.60
2017-07-28T10:13:09.272Z,8.20
2017-07-28T10:15:36.727Z,6.80
2017-07-28T10:18:04.181Z,7.75
2017-07-28T10:20:31.594Z,8.20
2017-07-28T10:22:59.026Z,7.10
2017-07-28T10:25:26.452Z,8.82
2017-07-28T10:27:53.904Z,6.30
2017-07-28T10:30:21.326Z,7.18
2017-07-28T10:32:48.772Z,7.60
2017-07-28T10:35:16.206Z,6.97
2017-07-28T10:37:43.675Z,6.80
2017-07-28T10:40:11.116Z,7.03
2017-07-28T10:42:38.573Z,6.87
2017-07-28T10:45:06.042Z,5.87
2017-07-28T10:47:33.494Z,7.22
2017-07-28T10:50:00.929Z,8.48
2017-07-28T10:52:28.371Z,7.70
2017-07-28T10:54:55.790Z,6.10
2017-07-28T10:57:23.229Z,6.80
2017-07-28T10:59:50.691Z,7.40
2017-07-28T11:02:18.157Z,6.45
2017-07-28T11:04:45.607Z,6.45
2017-07-28T11:07:13.065Z,9.02
2017-07-28T11:09:40.483Z,7.70
2017-07-28T11:12:07.922Z,10.15
2017-07-28T11:14:35.375Z,8.60
2017-07-28T11:17:02.796Z,7.70
2017-07-28T11:19:30.271Z,6.60
2017-07-28T11:21:57.712Z,6.45
2017-07-28T11:24:25.149Z,7.67
2017-07-28T11:26:52.589Z,7.57
2017-07-28T11:29:20.037Z,5.47
2017-07-28T11:31:47.507Z,3.30
2017-07-28T11:34:14.932Z,4.87
2017-07-28T11:36:42.361Z,4.20
2017-07-28T11:39:09.797Z,3.30
2017-07-28T11:41:37.248Z,4.95
2017-07-28T11:44:04.706Z,5.12
2017-07-28T11:46:32.147Z,6.12
2017-07-28T11:48:59.582Z,4.45
2017-07-28T11:51:27.042Z,3.72
2017-07-28T11:53:54.495Z,4.10
2017-07-28T11:56:21.913Z,4.40
2017-07-28T11:58:49.345Z,4.10
2017-07-28T12:01:16.777Z,5.70
2017-07-28T12:03:44.221Z,6.50
2017-07-28T12:06:11.679Z,7.07
2017-07-28T12:08:39.106Z,10.02
2017-07-28T12:11:06.556Z,8.40
2017-07-28T12:13:33.990Z,8.50
2017-07-28T12:16:01.434Z,7.75
2017-07-28T12:18:28.893Z,6.18
2017-07-28T12:20:56.345Z,7.40
2017-07-28T12:23:23.777Z,6.05
2017-07-28T12:25:51.234Z,7.50
2017-07-28T12:28:18.663Z,6.20
2017-07-28T12:30:46.100Z,7.37
2017-07-28T12:33:13.543Z,7.20
2017-07-28T12:35:40.971Z,8.30
2017-07-28T12:38:08.428Z,10.50
2017-07-28T12:40:35.846Z,10.00
2017-07-28T12:43:03.290Z,10.48
2017-07-28T12:45:30.729Z,12.77
2017-07-28T12:47:58.162Z,10.45
2017-07-28T12:50:25.584Z,11.10
2017-07-28T12:52:53.022Z,10.60
2017-07-28T12:55:20.464Z,10.30
2017-07-28T12:57:47.922Z,10.60
2017-07-28T13:00:15.347Z,9.52
2017-07-28T13:02:42.782Z,9.85
2017-07-28T13:05:10.218Z,10.50
2017-07-28T13:07:37.651Z,9.45
2017-07-28T13:10:05.091Z,9.65
2017-07-28T13:12:32.540Z,10.27
2017-07-28T13:14:59.976Z,9.83
2017-07-28T13:17:27.423Z,10.57
2017-07-28T13:19:54.887Z,11.30
2017-07-28T13:22:22.322Z,10.30
2017-07-28T13:24:49.767Z,8.20
2017-07-28T13:27:17.217Z,7.95
2017-07-28T13:29:44.672Z,5.03
2017-07-28T13:32:12.090Z,4.40
2017-07-28T13:34:39.517Z,4.45
2017-07-28T13:37:06.946Z,4.80
2017-07-28T13:39:34.366Z,6.80
2017-07-28T13:42:01.803Z,6.35
2017-07-28T13:44:29.274Z,3.72
2017-07-28T13:46:56.711Z,3.55
2017-07-28T13:49:24.138Z,6.05
2017-07-28T13:51:51.599Z,3.95
2017-07-28T13:54:19.033Z,4.87
2017-07-28T13:56:46.453Z,3.97
2017-07-28T13:59:13.887Z,3.72
2017-07-28T14:01:41.352Z,3.25
2017-07-28T14:04:08.779Z,4.40
2017-07-28T14:06:36.217Z,4.43
2017-07-28T14:09:03.663Z,2.60
2017-07-28T14:11:31.160Z,4.17
2017-07-28T14:13:58.588Z,3.50
2017-07-28T14:16:26.030Z,2.42
2017-07-28T14:18:53.503Z,4.60
2017-07-28T14:21:20.952Z,2.75
2017-07-28T14:23:48.415Z,4.47
2017-07-28T14:26:16.246Z,3.45
2017-07-28T14:28:43.678Z,3.78
2017-07-28T14:31:11.122Z,3.10
2017-07-28T14:33:38.552Z,2.85
2017-07-28T14:36:05.991Z,4.90
2017-07-28T14:38:33.426Z,4.10
2017-07-28T14:41:00.856Z,4.20
2017-07-28T14:43:28.291Z,5.70
2017-07-28T14:45:55.710Z,4.90
2017-07-28T14:48:23.149Z,3.90
2017-07-28T14:50:50.585Z,4.57
2017-07-28T14:53:18.010Z,5.40
2017-07-28T14:55:45.456Z,4.70
2017-07-28T14:58:12.882Z,3.80
2017-07-28T15:00:40.317Z,5.15
2017-07-28T15:03:07.742Z,4.12
2017-07-28T15:05:35.173Z,5.32
2017-07-28T15:08:02.598Z,5.80
2017-07-28T15:10:30.045Z,5.25
2017-07-28T15:12:57.529Z,4.97
2017-07-28T15:15:24.949Z,4.18
2017-07-28T15:17:52.381Z,4.20
2017-07-28T15:20:19.801Z,3.80
2017-07-28T15:22:47.249Z,4.40
2017-07-28T15:25:14.690Z,4.78
2017-07-28T15:27:42.111Z,5.05
2017-07-28T15:30:09.539Z,5.07
2017-07-28T15:32:37.014Z,5.45
2017-07-28T15:35:04.516Z,4.10
2017-07-28T15:37:31.959Z,4.00
2017-07-28T15:39:59.386Z,4.47
2017-07-28T15:42:26.819Z,4.07
2017-07-28T15:44:54.247Z,4.80
2017-07-28T15:47:21.673Z,4.30
2017-07-28T15:49:49.102Z,4.47
2017-07-28T15:52:16.536Z,6.10
2017-07-28T15:54:43.968Z,4.97
2017-07-28T15:57:11.427Z,4.10
2017-07-28T15:59:38.858Z,3.03
2017-07-28T16:02:06.287Z,3.62
2017-07-28T16:04:33.731Z,4.00
2017-07-28T16:07:01.151Z,3.70
2017-07-28T16:09:28.580Z,2.62
2017-07-28T16:11:56.014Z,2.87
2017-07-28T16:14:23.459Z,4.40
2017-07-28T16:16:50.891Z,3.50
2017-07-28T16:19:18.321Z,5.07
2017-07-28T16:21:45.763Z,5.53
2017-07-28T16:24:13.191Z,4.60
2017-07-28T16:26:40.623Z,3.37
2017-07-28T16:29:08.059Z,3.50
2017-07-28T16:31:35.501Z,3.55
2017-07-28T16:34:02.959Z,4.20
2017-07-28T16:36:30.378Z,3.50
2017-07-28T16:38:57.808Z,5.40
2017-07-28T16:41:25.270Z,4.15
2017-07-28T16:43:52.734Z,6.82
2017-07-28T16:46:20.171Z,7.03
2017-07-28T16:48:47.605Z,8.93
2017-07-28T16:51:15.055Z,5.37
2017-07-28T16:53:42.506Z,4.68
2017-07-28T16:56:09.945Z,5.80
2017-07-28T16:58:37.387Z,5.10
2017-07-28T17:01:04.829Z,4.20
2017-07-28T17:03:32.292Z,7.60
2017-07-28T17:05:59.765Z,6.95
2017-07-28T17:08:27.212Z,6.60
2017-07-28T17:10:54.649Z,6.57
2017-07-28T17:13:22.088Z,5.25
2017-07-28T17:15:49.517Z,5.30
2017-07-28T17:18:16.947Z,4.00
2017-07-28T17:20:44.362Z,5.07
2017-07-28T17:23:11.799Z,4.45
2017-07-28T17:25:39.226Z,4.00
2017-07-28T17:28:06.666Z,5.45
2017-07-28T17:30:34.091Z,5.53
2017-07-28T17:33:01.543Z,3.67
2017-07-28T17:35:28.968Z,7.13
2017-07-28T17:37:56.420Z,5.12
2017-07-28T17:40:23.840Z,4.07
2017-07-28T17:42:51.275Z,4.43
2017-07-28T17:45:18.710Z,5.72
2017-07-28T17:47:46.139Z,6.37
2017-07-28T17:50:13.578Z,5.75
2017-07-28T17:52:41.027Z,5.50
2017-07-28T17:55:08.443Z,6.78
2017-07-28T17:57:35.880Z,4.57
2017-07-28T18:00:03.320Z,5.80
2017-07-28T18:02:30.772Z,5.95
2017-07-28T18:04:58.212Z,7.10
2017-07-28T18:07:25.657Z,7.90
2017-07-28T18:09:53.100Z,4.80
2017-07-28T18:12:20.548Z,5.97
2017-07-28T18:14:47.973Z,7.27
2017-07-28T18:17:15.667Z,4.53
2017-07-28T18:19:43.094Z,4.47
2017-07-28T18:22:10.562Z,5.10
2017-07-28T18:24:38.015Z,5.05
2017-07-28T18:27:05.440Z,6.47
2017-07-28T18:29:32.916Z,5.65
2017-07-28T18:32:00.425Z,4.30
2017-07-28T18:34:27.879Z,4.83
2017-07-28T18:36:55.290Z,5.03
2017-07-28T18:39:22.764Z,5.57
2017-07-28T18:41:50.171Z,4.45
2017-07-28T18:44:17.657Z,4.78
2017-07-28T18:46:45.091Z,4.18
2017-07-28T18:49:12.555Z,3.10
2017-07-28T18:51:40.003Z,3.90
2017-07-28T18:54:07.439Z,3.40
2017-07-28T18:56:35.726Z,4.75
2017-07-28T18:59:03.163Z,5.47
2017-07-28T19:01:30.609Z,5.97
2017-07-28T19:03:58.064Z,5.12
2017-07-28T19:06:25.500Z,5.00
2017-07-28T19:08:52.921Z,7.20
2017-07-28T19:11:20.370Z,4.22
2017-07-28T19:13:47.811Z,7.72
2017-07-28T19:16:15.247Z,5.12
2017-07-28T19:18:42.688Z,8.18
2017-07-28T19:21:10.133Z,7.25
2017-07-28T19:23:37.553Z,8.50
2017-07-28T19:26:04.993Z,9.97
2017-07-28T19:28:32.428Z,8.80
2017-07-28T19:30:59.859Z,10.57
2017-07-28T19:33:27.312Z,9.80
2017-07-28T19:35:54.744Z,7.68
2017-07-28T19:38:22.181Z,8.85
2017-07-28T19:40:49.607Z,10.00
2017-07-28T19:43:17.056Z,8.75
2017-07-28T19:45:44.481Z,11.30
2017-07-28T19:48:11.924Z,13.93
2017-07-28T19:50:39.364Z,13.90
2017-07-28T19:53:06.800Z,12.13
2017-07-28T19:55:34.235Z,9.03
2017-07-28T19:58:01.666Z,10.50
2017-07-28T20:00:29.111Z,10.77
2017-07-28T20:02:56.551Z,10.13
2017-07-28T20:05:24.007Z,12.20
2017-07-28T20:07:51.455Z,14.30
2017-07-28T20:10:18.885Z,13.73
2017-07-28T20:12:46.339Z,10.60
2017-07-28T20:15:13.791Z,10.07
2017-07-28T20:17:41.241Z,9.07
2017-07-28T20:20:08.734Z,7.23
2017-07-28T20:22:36.174Z,8.60
2017-07-28T20:25:03.615Z,6.43
2017-07-28T20:27:31.045Z,7.07
2017-07-28T20:29:58.477Z,9.77
2017-07-28T20:32:25.913Z,8.80
2017-07-28T20:34:53.374Z,10.27
2017-07-28T20:37:20.830Z,11.02
2017-07-28T20:39:48.253Z,8.90
2017-07-28T20:42:15.694Z,10.10
2017-07-28T20:44:43.124Z,8.80
2017-07-28T20:47:10.555Z,8.18
2017-07-28T20:49:37.987Z,8.00
2017-07-28T20:52:05.435Z,8.40
2017-07-28T20:54:32.872Z,8.20
2017-07-28T20:57:00.322Z,8.30
2017-07-28T20:59:27.742Z,9.15
2017-07-28T21:01:55.158Z,9.50
2017-07-28T21:04:22.603Z,9.27
2017-07-28T21:06:50.047Z,9.55
2017-07-28T21:09:17.487Z,10.38
2017-07-28T21:11:44.927Z,11.63
2017-07-28T21:14:19.112Z,11.87
2017-07-28T21:16:46.601Z,16.30
2017-07-28T21:19:14.039Z,13.10
2017-07-28T21:21:41.493Z,12.60
2017-07-28T21:24:08.935Z,12.55
2017-07-28T21:26:36.377Z,11.32
2017-07-28T21:29:03.804Z,17.87
2017-07-28T21:31:31.264Z,15.38
2017-07-28T21:33:58.726Z,13.73
2017-07-28T21:36:26.146Z,12.02
2017-07-28T21:38:53.590Z,9.60
2017-07-28T21:41:21.017Z,9.25
2017-07-28T21:43:48.476Z,10.48
2017-07-28T21:46:15.927Z,8.73
2017-07-28T21:48:43.363Z,9.60
2017-07-28T21:51:10.802Z,8.50
2017-07-28T21:53:38.270Z,9.25
2017-07-28T21:56:05.711Z,10.30
2017-07-28T21:58:33.149Z,9.32
2017-07-28T22:01:00.599Z,9.40
2017-07-28T22:03:28.028Z,10.70
2017-07-28T22:05:55.459Z,9.30
2017-07-28T22:08:22.901Z,13.55
2017-07-28T22:10:50.331Z,9.45
2017-07-28T22:13:17.775Z,9.02
2017-07-28T22:15:45.260Z,11.90
2017-07-28T22:18:12.720Z,10.48
2017-07-28T22:20:40.156Z,8.75
2017-07-28T22:23:07.623Z,10.32
2017-07-28T22:25:35.843Z,11.88
2017-07-28T22:28:03.299Z,11.20
2017-07-28T22:30:30.721Z,9.85
2017-07-28T22:32:59.302Z,7.15
2017-07-28T22:35:26.728Z,9.90
2017-07-28T22:37:54.155Z,8.50
2017-07-28T22:40:21.639Z,7.57
2017-07-28T22:42:49.075Z,10.63
2017-07-28T22:45:16.525Z,9.43
2017-07-28T22:47:43.970Z,11.27
2017-07-28T22:50:11.433Z,8.27
2017-07-28T22:52:38.867Z,10.43
2017-07-28T22:55:06.306Z,10.52
2017-07-28T22:57:33.740Z,12.07
2017-07-28T23:00:01.195Z,10.55
2017-07-28T23:02:28.634Z,9.23
2017-07-28T23:04:56.068Z,12.73
2017-07-28T23:07:23.509Z,9.10
2017-07-28T23:09:50.951Z,10.90
2017-07-28T23:12:18.378Z,13.18
2017-07-28T23:14:45.814Z,14.55
2017-07-28T23:17:13.271Z,15.93
2017-07-28T23:19:40.711Z,13.85
2017-07-28T23:22:08.144Z,12.20
2017-07-28T23:24:35.593Z,12.73
2017-07-28T23:27:03.067Z,10.40
2017-07-28T23:29:30.493Z,11.15
2017-07-28T23:31:57.937Z,9.95
2017-07-28T23:34:25.379Z,12.88
2017-07-28T23:36:52.822Z,9.93
2017-07-28T23:39:20.268Z,10.35
2017-07-28T23:41:47.699Z,11.73
2017-07-28T23:44:15.122Z,9.50
2017-07-28T23:46:42.578Z,13.93
2017-07-28T23:49:10.010Z,11.45
2017-07-28T23:51:37.443Z,11.52
2017-07-28T23:54:04.887Z,9.73
2017-07-28T23:56:32.334Z,8.25
2017-07-28T23:58:59.791Z,11.52
